sensor_id;sensor_type;location;lat;lon;timestamp;P1;durP1;ratioP1;P2;durP2;ratioP2
15104;SDS011;7653;48.994;9.212;2023-04-28T00:02:00;6.60;;;3.70;;
15104;SDS011;7653;48.994;9.212;2023-04-28T00:04:27;4.67;;;3.37;;
15104;SDS011;7653;48.994;9.212;2023-04-28T00:06:52;4.30;;;3.30;;
15104;SDS011;7653;48.994;9.212;2023-04-28T00:09:18;4.97;;;3.37;;
15104;SDS011;7653;48.994;9.212;2023-04-28T00:11:44;8.57;;;3.20;;
15104;SDS011;7653;48.994;9.212;2023-04-28T00:14:10;3.73;;;2.90;;
15104;SDS011;7653;48.994;9.212;2023-04-28T00:16:36;4.60;;;3.07;;
15104;SDS011;7653;48.994;9.212;2023-04-28T00:19:02;4.03;;;3.63;;
15104;SDS011;7653;48.994;9.212;2023-04-28T00:21:28;5.30;;;3.70;;
15104;SDS011;7653;48.994;9.212;2023-04-28T00:23:53;3.90;;;3.40;;
15104;SDS011;7653;48.994;9.212;2023-04-28T00:26:19;6.23;;;3.60;;
15104;SDS011;7653;48.994;9.212;2023-04-28T00:28:44;5.77;;;3.30;;
15104;SDS011;7653;48.994;9.212;2023-04-28T00:31:11;7.03;;;4.13;;
15104;SDS011;7653;48.994;9.212;2023-04-28T00:33:38;6.03;;;4.17;;
15104;SDS011;7653;48.994;9.212;2023-04-28T00:36:04;5.87;;;4.07;;
15104;SDS011;7653;48.994;9.212;2023-04-28T00:38:30;6.33;;;3.80;;
15104;SDS011;7653;48.994;9.212;2023-04-28T00:40:56;6.20;;;3.73;;
15104;SDS011;7653;48.994;9.212;2023-04-28T00:43:21;4.03;;;3.23;;
15104;SDS011;7653;48.994;9.212;2023-04-28T00:45:48;4.77;;;3.50;;
15104;SDS011;7653;48.994;9.212;2023-04-28T00:48:14;4.03;;;3.50;;
15104;SDS011;7653;48.994;9.212;2023-04-28T00:50:41;4.23;;;3.83;;
15104;SDS011;7653;48.994;9.212;2023-04-28T00:53:07;4.40;;;3.90;;
15104;SDS011;7653;48.994;9.212;2023-04-28T00:55:34;4.30;;;3.63;;
15104;SDS011;7653;48.994;9.212;2023-04-28T00:58:01;4.70;;;3.90;;
15104;SDS011;7653;48.994;9.212;2023-04-28T01:00:26;6.40;;;3.90;;
15104;SDS011;7653;48.994;9.212;2023-04-28T01:02:52;3.97;;;3.67;;
15104;SDS011;7653;48.994;9.212;2023-04-28T01:05:19;5.63;;;3.60;;
15104;SDS011;7653;48.994;9.212;2023-04-28T01:07:45;4.73;;;3.67;;
15104;SDS011;7653;48.994;9.212;2023-04-28T01:10:10;4.57;;;4.13;;
15104;SDS011;7653;48.994;9.212;2023-04-28T01:12:36;4.77;;;4.10;;
15104;SDS011;7653;48.994;9.212;2023-04-28T01:15:02;5.67;;;3.63;;
15104;SDS011;7653;48.994;9.212;2023-04-28T01:17:28;5.87;;;4.13;;
15104;SDS011;7653;48.994;9.212;2023-04-28T01:19:53;4.23;;;3.77;;
15104;SDS011;7653;48.994;9.212;2023-04-28T01:22:19;6.10;;;3.93;;
15104;SDS011;7653;48.994;9.212;2023-04-28T01:24:45;4.07;;;3.50;;
15104;SDS011;7653;48.994;9.212;2023-04-28T01:27:11;5.43;;;4.10;;
15104;SDS011;7653;48.994;9.212;2023-04-28T01:29:36;4.83;;;3.83;;
15104;SDS011;7653;48.994;9.212;2023-04-28T01:32:02;4.60;;;4.20;;
15104;SDS011;7653;48.994;9.212;2023-04-28T01:34:28;5.07;;;4.57;;
15104;SDS011;7653;48.994;9.212;2023-04-28T01:36:54;5.10;;;4.20;;
15104;SDS011;7653;48.994;9.212;2023-04-28T01:39:20;3.87;;;3.47;;
15104;SDS011;7653;48.994;9.212;2023-04-28T01:41:46;5.00;;;4.47;;
15104;SDS011;7653;48.994;9.212;2023-04-28T01:44:11;5.33;;;4.17;;
15104;SDS011;7653;48.994;9.212;2023-04-28T01:46:37;6.13;;;4.57;;
15104;SDS011;7653;48.994;9.212;2023-04-28T01:49:02;7.37;;;4.50;;
15104;SDS011;7653;48.994;9.212;2023-04-28T01:51:28;6.53;;;5.67;;
15104;SDS011;7653;48.994;9.212;2023-04-28T01:53:55;5.70;;;4.23;;
15104;SDS011;7653;48.994;9.212;2023-04-28T01:56:21;6.33;;;4.50;;
15104;SDS011;7653;48.994;9.212;2023-04-28T01:58:46;6.43;;;5.40;;
15104;SDS011;7653;48.994;9.212;2023-04-28T02:01:12;8.07;;;5.20;;
15104;SDS011;7653;48.994;9.212;2023-04-28T02:03:37;6.20;;;4.83;;
15104;SDS011;7653;48.994;9.212;2023-04-28T02:06:03;6.03;;;5.13;;
15104;SDS011;7653;48.994;9.212;2023-04-28T02:08:29;5.47;;;4.97;;
15104;SDS011;7653;48.994;9.212;2023-04-28T02:10:54;5.40;;;4.43;;
15104;SDS011;7653;48.994;9.212;2023-04-28T02:13:22;6.77;;;4.80;;
15104;SDS011;7653;48.994;9.212;2023-04-28T02:15:47;6.40;;;5.00;;
15104;SDS011;7653;48.994;9.212;2023-04-28T02:18:13;5.63;;;4.60;;
15104;SDS011;7653;48.994;9.212;2023-04-28T02:20:39;6.87;;;4.70;;
15104;SDS011;7653;48.994;9.212;2023-04-28T02:23:05;6.07;;;4.27;;
15104;SDS011;7653;48.994;9.212;2023-04-28T02:25:30;5.67;;;4.23;;
15104;SDS011;7653;48.994;9.212;2023-04-28T02:27:56;5.57;;;4.50;;
15104;SDS011;7653;48.994;9.212;2023-04-28T02:30:23;7.40;;;5.10;;
15104;SDS011;7653;48.994;9.212;2023-04-28T02:32:48;6.27;;;5.23;;
15104;SDS011;7653;48.994;9.212;2023-04-28T02:35:14;6.17;;;5.20;;
15104;SDS011;7653;48.994;9.212;2023-04-28T02:37:40;5.00;;;4.57;;
15104;SDS011;7653;48.994;9.212;2023-04-28T02:40:05;7.00;;;5.30;;
15104;SDS011;7653;48.994;9.212;2023-04-28T02:42:31;5.93;;;4.80;;
15104;SDS011;7653;48.994;9.212;2023-04-28T02:44:57;5.57;;;4.70;;
15104;SDS011;7653;48.994;9.212;2023-04-28T02:47:23;6.47;;;5.00;;
15104;SDS011;7653;48.994;9.212;2023-04-28T02:49:48;6.33;;;5.73;;
15104;SDS011;7653;48.994;9.212;2023-04-28T02:52:14;7.07;;;5.60;;
15104;SDS011;7653;48.994;9.212;2023-04-28T02:54:40;6.33;;;5.37;;
15104;SDS011;7653;48.994;9.212;2023-04-28T02:57:05;6.23;;;4.70;;
15104;SDS011;7653;48.994;9.212;2023-04-28T02:59:31;5.40;;;4.80;;
15104;SDS011;7653;48.994;9.212;2023-04-28T03:01:57;6.93;;;5.50;;
15104;SDS011;7653;48.994;9.212;2023-04-28T03:04:22;5.70;;;5.10;;
15104;SDS011;7653;48.994;9.212;2023-04-28T03:06:48;7.60;;;5.23;;
15104;SDS011;7653;48.994;9.212;2023-04-28T03:09:14;6.87;;;6.00;;
15104;SDS011;7653;48.994;9.212;2023-04-28T03:11:40;5.60;;;5.10;;
15104;SDS011;7653;48.994;9.212;2023-04-28T03:14:06;8.40;;;5.90;;
15104;SDS011;7653;48.994;9.212;2023-04-28T03:16:32;7.10;;;5.30;;
15104;SDS011;7653;48.994;9.212;2023-04-28T03:18:58;6.27;;;5.53;;
15104;SDS011;7653;48.994;9.212;2023-04-28T03:21:23;7.50;;;6.30;;
15104;SDS011;7653;48.994;9.212;2023-04-28T03:23:52;8.10;;;6.60;;
15104;SDS011;7653;48.994;9.212;2023-04-28T03:26:17;7.33;;;6.43;;
15104;SDS011;7653;48.994;9.212;2023-04-28T03:28:43;7.57;;;6.63;;
15104;SDS011;7653;48.994;9.212;2023-04-28T03:31:09;11.60;;;7.17;;
15104;SDS011;7653;48.994;9.212;2023-04-28T03:33:34;8.33;;;6.60;;
15104;SDS011;7653;48.994;9.212;2023-04-28T03:36:00;8.53;;;6.60;;
15104;SDS011;7653;48.994;9.212;2023-04-28T03:38:26;9.90;;;7.07;;
15104;SDS011;7653;48.994;9.212;2023-04-28T03:40:52;7.53;;;6.47;;
15104;SDS011;7653;48.994;9.212;2023-04-28T03:43:17;7.60;;;6.07;;
15104;SDS011;7653;48.994;9.212;2023-04-28T03:45:43;6.77;;;5.80;;
15104;SDS011;7653;48.994;9.212;2023-04-28T03:48:09;7.93;;;6.07;;
15104;SDS011;7653;48.994;9.212;2023-04-28T03:50:34;11.10;;;7.10;;
15104;SDS011;7653;48.994;9.212;2023-04-28T03:53:00;10.53;;;7.63;;
15104;SDS011;7653;48.994;9.212;2023-04-28T03:55:26;8.37;;;7.13;;
15104;SDS011;7653;48.994;9.212;2023-04-28T03:57:51;8.97;;;7.57;;
15104;SDS011;7653;48.994;9.212;2023-04-28T04:00:17;11.80;;;7.57;;
15104;SDS011;7653;48.994;9.212;2023-04-28T04:02:43;9.53;;;7.53;;
15104;SDS011;7653;48.994;9.212;2023-04-28T04:05:09;7.73;;;6.80;;
15104;SDS011;7653;48.994;9.212;2023-04-28T04:07:34;9.03;;;6.33;;
15104;SDS011;7653;48.994;9.212;2023-04-28T04:10:00;9.13;;;7.30;;
15104;SDS011;7653;48.994;9.212;2023-04-28T04:12:26;9.60;;;6.60;;
15104;SDS011;7653;48.994;9.212;2023-04-28T04:14:52;6.47;;;5.40;;
15104;SDS011;7653;48.994;9.212;2023-04-28T04:17:17;8.47;;;6.43;;
15104;SDS011;7653;48.994;9.212;2023-04-28T04:19:43;7.60;;;5.73;;
15104;SDS011;7653;48.994;9.212;2023-04-28T04:22:08;9.20;;;6.33;;
15104;SDS011;7653;48.994;9.212;2023-04-28T04:24:34;7.13;;;6.03;;
15104;SDS011;7653;48.994;9.212;2023-04-28T04:27:00;10.20;;;6.73;;
15104;SDS011;7653;48.994;9.212;2023-04-28T04:29:25;8.53;;;7.13;;
15104;SDS011;7653;48.994;9.212;2023-04-28T04:31:51;8.97;;;7.33;;
15104;SDS011;7653;48.994;9.212;2023-04-28T04:34:16;9.30;;;7.57;;
15104;SDS011;7653;48.994;9.212;2023-04-28T04:36:42;9.63;;;7.70;;
15104;SDS011;7653;48.994;9.212;2023-04-28T04:39:08;9.77;;;8.00;;
15104;SDS011;7653;48.994;9.212;2023-04-28T04:41:34;10.80;;;7.93;;
15104;SDS011;7653;48.994;9.212;2023-04-28T04:43:59;12.30;;;7.90;;
15104;SDS011;7653;48.994;9.212;2023-04-28T04:46:25;9.30;;;8.27;;
15104;SDS011;7653;48.994;9.212;2023-04-28T04:48:50;11.23;;;8.73;;
15104;SDS011;7653;48.994;9.212;2023-04-28T04:51:16;8.37;;;7.43;;
15104;SDS011;7653;48.994;9.212;2023-04-28T04:53:42;8.43;;;7.60;;
15104;SDS011;7653;48.994;9.212;2023-04-28T04:56:08;12.20;;;7.67;;
15104;SDS011;7653;48.994;9.212;2023-04-28T04:58:33;9.63;;;7.23;;
15104;SDS011;7653;48.994;9.212;2023-04-28T05:00:59;7.57;;;6.87;;
15104;SDS011;7653;48.994;9.212;2023-04-28T05:03:25;8.40;;;7.50;;
15104;SDS011;7653;48.994;9.212;2023-04-28T05:05:50;8.53;;;6.57;;
15104;SDS011;7653;48.994;9.212;2023-04-28T05:08:16;10.47;;;6.73;;
15104;SDS011;7653;48.994;9.212;2023-04-28T05:10:42;9.13;;;6.37;;
15104;SDS011;7653;48.994;9.212;2023-04-28T05:13:07;9.10;;;7.57;;
15104;SDS011;7653;48.994;9.212;2023-04-28T05:15:33;9.17;;;7.83;;
15104;SDS011;7653;48.994;9.212;2023-04-28T05:17:59;10.37;;;8.20;;
15104;SDS011;7653;48.994;9.212;2023-04-28T05:20:25;8.63;;;7.73;;
15104;SDS011;7653;48.994;9.212;2023-04-28T05:22:50;8.87;;;7.10;;
15104;SDS011;7653;48.994;9.212;2023-04-28T05:25:16;11.50;;;7.93;;
15104;SDS011;7653;48.994;9.212;2023-04-28T05:27:41;10.47;;;7.20;;
15104;SDS011;7653;48.994;9.212;2023-04-28T05:30:08;9.37;;;8.37;;
15104;SDS011;7653;48.994;9.212;2023-04-28T05:32:34;10.57;;;7.03;;
15104;SDS011;7653;48.994;9.212;2023-04-28T05:35:01;7.30;;;6.43;;
15104;SDS011;7653;48.994;9.212;2023-04-28T05:37:27;8.60;;;7.13;;
15104;SDS011;7653;48.994;9.212;2023-04-28T05:39:53;8.70;;;6.53;;
15104;SDS011;7653;48.994;9.212;2023-04-28T05:42:19;8.97;;;7.43;;
15104;SDS011;7653;48.994;9.212;2023-04-28T05:44:45;8.60;;;7.37;;
15104;SDS011;7653;48.994;9.212;2023-04-28T05:47:10;8.60;;;7.23;;
15104;SDS011;7653;48.994;9.212;2023-04-28T05:49:36;9.30;;;6.80;;
15104;SDS011;7653;48.994;9.212;2023-04-28T05:52:02;10.67;;;6.83;;
15104;SDS011;7653;48.994;9.212;2023-04-28T05:54:28;9.80;;;6.40;;
15104;SDS011;7653;48.994;9.212;2023-04-28T05:56:54;11.13;;;7.13;;
15104;SDS011;7653;48.994;9.212;2023-04-28T05:59:20;12.93;;;7.30;;
15104;SDS011;7653;48.994;9.212;2023-04-28T06:01:45;8.53;;;7.27;;
15104;SDS011;7653;48.994;9.212;2023-04-28T06:04:11;11.47;;;7.40;;
15104;SDS011;7653;48.994;9.212;2023-04-28T06:06:37;11.63;;;9.03;;
15104;SDS011;7653;48.994;9.212;2023-04-28T06:09:02;9.87;;;7.93;;
15104;SDS011;7653;48.994;9.212;2023-04-28T06:11:28;11.00;;;6.83;;
15104;SDS011;7653;48.994;9.212;2023-04-28T06:13:54;10.57;;;7.60;;
15104;SDS011;7653;48.994;9.212;2023-04-28T06:16:19;11.43;;;6.90;;
15104;SDS011;7653;48.994;9.212;2023-04-28T06:18:47;11.70;;;7.20;;
15104;SDS011;7653;48.994;9.212;2023-04-28T06:21:13;12.27;;;7.20;;
15104;SDS011;7653;48.994;9.212;2023-04-28T06:23:39;12.03;;;8.03;;
15104;SDS011;7653;48.994;9.212;2023-04-28T06:26:06;10.03;;;7.83;;
15104;SDS011;7653;48.994;9.212;2023-04-28T06:28:32;9.53;;;7.17;;
15104;SDS011;7653;48.994;9.212;2023-04-28T06:30:58;9.27;;;7.10;;
15104;SDS011;7653;48.994;9.212;2023-04-28T06:33:24;10.03;;;6.90;;
15104;SDS011;7653;48.994;9.212;2023-04-28T06:35:49;9.37;;;6.20;;
15104;SDS011;7653;48.994;9.212;2023-04-28T06:38:15;6.87;;;6.03;;
15104;SDS011;7653;48.994;9.212;2023-04-28T06:40:41;8.57;;;6.27;;
15104;SDS011;7653;48.994;9.212;2023-04-28T06:43:07;11.40;;;6.73;;
15104;SDS011;7653;48.994;9.212;2023-04-28T06:45:32;11.17;;;7.13;;
15104;SDS011;7653;48.994;9.212;2023-04-28T06:47:58;9.50;;;6.43;;
15104;SDS011;7653;48.994;9.212;2023-04-28T06:50:24;9.87;;;7.10;;
15104;SDS011;7653;48.994;9.212;2023-04-28T06:52:49;11.07;;;7.87;;
15104;SDS011;7653;48.994;9.212;2023-04-28T06:55:15;9.33;;;7.47;;
15104;SDS011;7653;48.994;9.212;2023-04-28T06:57:41;9.10;;;7.33;;
15104;SDS011;7653;48.994;9.212;2023-04-28T07:00:08;9.40;;;7.33;;
15104;SDS011;7653;48.994;9.212;2023-04-28T07:02:35;8.87;;;7.50;;
15104;SDS011;7653;48.994;9.212;2023-04-28T07:05:01;10.77;;;8.87;;
15104;SDS011;7653;48.994;9.212;2023-04-28T07:07:30;8.83;;;7.63;;
15104;SDS011;7653;48.994;9.212;2023-04-28T07:09:56;10.97;;;7.63;;
15104;SDS011;7653;48.994;9.212;2023-04-28T07:12:22;12.53;;;8.37;;
15104;SDS011;7653;48.994;9.212;2023-04-28T07:14:48;9.80;;;7.23;;
15104;SDS011;7653;48.994;9.212;2023-04-28T07:17:14;10.93;;;8.30;;
15104;SDS011;7653;48.994;9.212;2023-04-28T07:19:40;8.40;;;7.03;;
15104;SDS011;7653;48.994;9.212;2023-04-28T07:22:06;9.00;;;7.60;;
15104;SDS011;7653;48.994;9.212;2023-04-28T07:24:32;11.63;;;9.20;;
15104;SDS011;7653;48.994;9.212;2023-04-28T07:26:57;11.70;;;8.50;;
15104;SDS011;7653;48.994;9.212;2023-04-28T07:29:23;8.83;;;7.93;;
15104;SDS011;7653;48.994;9.212;2023-04-28T07:31:49;9.30;;;7.47;;
15104;SDS011;7653;48.994;9.212;2023-04-28T07:34:14;9.87;;;7.87;;
15104;SDS011;7653;48.994;9.212;2023-04-28T07:36:40;12.43;;;9.97;;
15104;SDS011;7653;48.994;9.212;2023-04-28T07:39:06;10.20;;;8.30;;
15104;SDS011;7653;48.994;9.212;2023-04-28T07:41:38;10.60;;;7.77;;
15104;SDS011;7653;48.994;9.212;2023-04-28T07:44:04;11.63;;;7.63;;
15104;SDS011;7653;48.994;9.212;2023-04-28T07:46:32;8.90;;;7.63;;
15104;SDS011;7653;48.994;9.212;2023-04-28T07:48:58;11.00;;;7.80;;
15104;SDS011;7653;48.994;9.212;2023-04-28T07:51:24;11.57;;;8.27;;
15104;SDS011;7653;48.994;9.212;2023-04-28T07:53:50;9.37;;;7.70;;
15104;SDS011;7653;48.994;9.212;2023-04-28T07:56:16;9.90;;;8.30;;
15104;SDS011;7653;48.994;9.212;2023-04-28T07:58:42;10.53;;;7.83;;
15104;SDS011;7653;48.994;9.212;2023-04-28T08:01:07;12.03;;;9.10;;
15104;SDS011;7653;48.994;9.212;2023-04-28T08:03:33;13.63;;;9.60;;
15104;SDS011;7653;48.994;9.212;2023-04-28T08:05:59;13.93;;;8.30;;
15104;SDS011;7653;48.994;9.212;2023-04-28T08:08:25;16.70;;;11.33;;
15104;SDS011;7653;48.994;9.212;2023-04-28T08:10:51;19.03;;;14.10;;
15104;SDS011;7653;48.994;9.212;2023-04-28T08:13:17;11.37;;;9.60;;
15104;SDS011;7653;48.994;9.212;2023-04-28T08:15:43;10.07;;;9.00;;
15104;SDS011;7653;48.994;9.212;2023-04-28T08:18:08;7.57;;;6.77;;
15104;SDS011;7653;48.994;9.212;2023-04-28T08:20:34;10.60;;;7.70;;
15104;SDS011;7653;48.994;9.212;2023-04-28T08:23:00;12.00;;;7.73;;
15104;SDS011;7653;48.994;9.212;2023-04-28T08:25:25;11.17;;;7.63;;
15104;SDS011;7653;48.994;9.212;2023-04-28T08:27:51;9.17;;;7.50;;
15104;SDS011;7653;48.994;9.212;2023-04-28T08:30:17;10.70;;;6.50;;
15104;SDS011;7653;48.994;9.212;2023-04-28T08:32:43;9.23;;;6.40;;
15104;SDS011;7653;48.994;9.212;2023-04-28T08:35:08;8.30;;;6.47;;
15104;SDS011;7653;48.994;9.212;2023-04-28T08:37:34;7.03;;;6.33;;
15104;SDS011;7653;48.994;9.212;2023-04-28T08:40:00;6.87;;;6.10;;
15104;SDS011;7653;48.994;9.212;2023-04-28T08:42:29;7.73;;;6.00;;
15104;SDS011;7653;48.994;9.212;2023-04-28T08:44:56;8.30;;;6.57;;
15104;SDS011;7653;48.994;9.212;2023-04-28T08:47:24;9.53;;;7.33;;
15104;SDS011;7653;48.994;9.212;2023-04-28T08:50:06;8.40;;;7.60;;
15104;SDS011;7653;48.994;9.212;2023-04-28T08:52:33;7.33;;;5.53;;
15104;SDS011;7653;48.994;9.212;2023-04-28T08:55:00;8.53;;;6.77;;
15104;SDS011;7653;48.994;9.212;2023-04-28T09:00:08;8.83;;;6.80;;
15104;SDS011;7653;48.994;9.212;2023-04-28T09:02:35;8.83;;;6.67;;
15104;SDS011;7653;48.994;9.212;2023-04-28T09:05:06;12.20;;;9.90;;
15104;SDS011;7653;48.994;9.212;2023-04-28T09:07:33;11.93;;;8.97;;
15104;SDS011;7653;48.994;9.212;2023-04-28T09:10:18;10.63;;;8.07;;
15104;SDS011;7653;48.994;9.212;2023-04-28T09:12:44;8.23;;;7.07;;
15104;SDS011;7653;48.994;9.212;2023-04-28T09:15:10;7.50;;;6.60;;
15104;SDS011;7653;48.994;9.212;2023-04-28T09:17:50;7.77;;;6.93;;
15104;SDS011;7653;48.994;9.212;2023-04-28T09:20:23;7.00;;;6.00;;
15104;SDS011;7653;48.994;9.212;2023-04-28T09:22:50;6.53;;;5.90;;
15104;SDS011;7653;48.994;9.212;2023-04-28T09:25:18;7.40;;;6.07;;
15104;SDS011;7653;48.994;9.212;2023-04-28T09:27:45;9.63;;;6.50;;
15104;SDS011;7653;48.994;9.212;2023-04-28T09:30:11;7.27;;;6.53;;
15104;SDS011;7653;48.994;9.212;2023-04-28T09:32:39;7.37;;;6.67;;
15104;SDS011;7653;48.994;9.212;2023-04-28T09:35:05;7.40;;;6.57;;
15104;SDS011;7653;48.994;9.212;2023-04-28T09:37:32;8.30;;;6.80;;
15104;SDS011;7653;48.994;9.212;2023-04-28T09:40:07;7.73;;;6.60;;
15104;SDS011;7653;48.994;9.212;2023-04-28T09:42:39;7.17;;;6.47;;
15104;SDS011;7653;48.994;9.212;2023-04-28T09:47:33;9.97;;;8.20;;
15104;SDS011;7653;48.994;9.212;2023-04-28T09:50:01;8.87;;;7.73;;
15104;SDS011;7653;48.994;9.212;2023-04-28T09:52:28;8.93;;;7.20;;
15104;SDS011;7653;48.994;9.212;2023-04-28T09:54:55;8.47;;;7.50;;
15104;SDS011;7653;48.994;9.212;2023-04-28T09:57:21;7.83;;;6.93;;
15104;SDS011;7653;48.994;9.212;2023-04-28T09:59:48;7.80;;;6.97;;
15104;SDS011;7653;48.994;9.212;2023-04-28T10:02:15;7.93;;;7.13;;
15104;SDS011;7653;48.994;9.212;2023-04-28T10:04:46;7.20;;;6.50;;
15104;SDS011;7653;48.994;9.212;2023-04-28T10:07:14;7.13;;;6.40;;
15104;SDS011;7653;48.994;9.212;2023-04-28T10:09:43;7.83;;;7.03;;
15104;SDS011;7653;48.994;9.212;2023-04-28T10:12:18;7.83;;;7.03;;
15104;SDS011;7653;48.994;9.212;2023-04-28T10:14:44;7.93;;;6.90;;
15104;SDS011;7653;48.994;9.212;2023-04-28T10:17:14;6.67;;;5.97;;
15104;SDS011;7653;48.994;9.212;2023-04-28T10:19:42;8.57;;;5.73;;
15104;SDS011;7653;48.994;9.212;2023-04-28T10:27:41;4.30;;;3.90;;
15104;SDS011;7653;48.994;9.212;2023-04-28T10:30:18;5.23;;;4.30;;
15104;SDS011;7653;48.994;9.212;2023-04-28T10:32:45;4.03;;;3.43;;
15104;SDS011;7653;48.994;9.212;2023-04-28T10:40:39;2.60;;;2.40;;
15104;SDS011;7653;48.994;9.212;2023-04-28T10:43:05;1.70;;;1.60;;
15104;SDS011;7653;48.994;9.212;2023-04-28T10:48:14;2.17;;;1.97;;
15104;SDS011;7653;48.994;9.212;2023-04-28T10:51:19;3.07;;;2.07;;
15104;SDS011;7653;48.994;9.212;2023-04-28T10:58:42;1.67;;;1.57;;
15104;SDS011;7653;48.994;9.212;2023-04-28T11:03:58;2.37;;;2.17;;
15104;SDS011;7653;48.994;9.212;2023-04-28T11:06:31;2.40;;;2.20;;
15104;SDS011;7653;48.994;9.212;2023-04-28T11:09:03;2.53;;;2.33;;
15104;SDS011;7653;48.994;9.212;2023-04-28T11:14:30;2.37;;;2.10;;
15104;SDS011;7653;48.994;9.212;2023-04-28T11:19:34;2.53;;;2.23;;
15104;SDS011;7653;48.994;9.212;2023-04-28T11:22:04;2.30;;;2.10;;
15104;SDS011;7653;48.994;9.212;2023-04-28T11:24:36;3.90;;;2.40;;
15104;SDS011;7653;48.994;9.212;2023-04-28T11:27:01;3.00;;;2.40;;
15104;SDS011;7653;48.994;9.212;2023-04-28T11:32:01;4.77;;;2.80;;
15104;SDS011;7653;48.994;9.212;2023-04-28T11:34:31;4.23;;;2.87;;
15104;SDS011;7653;48.994;9.212;2023-04-28T11:36:57;2.20;;;2.00;;
15104;SDS011;7653;48.994;9.212;2023-04-28T11:39:26;3.07;;;1.90;;
15104;SDS011;7653;48.994;9.212;2023-04-28T11:41:53;3.97;;;2.07;;
15104;SDS011;7653;48.994;9.212;2023-04-28T11:44:20;3.57;;;1.90;;
15104;SDS011;7653;48.994;9.212;2023-04-28T11:46:47;2.27;;;1.70;;
15104;SDS011;7653;48.994;9.212;2023-04-28T11:51:53;2.37;;;2.03;;
15104;SDS011;7653;48.994;9.212;2023-04-28T11:54:23;1.50;;;1.40;;
15104;SDS011;7653;48.994;9.212;2023-04-28T11:56:51;1.80;;;1.50;;
15104;SDS011;7653;48.994;9.212;2023-04-28T11:59:17;1.93;;;1.60;;
15104;SDS011;7653;48.994;9.212;2023-04-28T12:07:03;3.00;;;2.00;;
15104;SDS011;7653;48.994;9.212;2023-04-28T12:09:42;1.60;;;1.50;;
15104;SDS011;7653;48.994;9.212;2023-04-28T12:14:55;2.00;;;1.63;;
15104;SDS011;7653;48.994;9.212;2023-04-28T12:19:49;1.47;;;1.30;;
15104;SDS011;7653;48.994;9.212;2023-04-28T12:22:14;1.40;;;1.30;;
15104;SDS011;7653;48.994;9.212;2023-04-28T12:24:41;1.43;;;1.33;;
15104;SDS011;7653;48.994;9.212;2023-04-28T12:29:46;0.60;;;0.60;;
15104;SDS011;7653;48.994;9.212;2023-04-28T12:32:12;1.77;;;1.37;;
15104;SDS011;7653;48.994;9.212;2023-04-28T12:34:39;2.30;;;1.00;;
15104;SDS011;7653;48.994;9.212;2023-04-28T12:37:06;1.73;;;1.00;;
15104;SDS011;7653;48.994;9.212;2023-04-28T12:39:32;1.43;;;1.20;;
15104;SDS011;7653;48.994;9.212;2023-04-28T12:42:03;1.90;;;0.80;;
15104;SDS011;7653;48.994;9.212;2023-04-28T12:44:32;1.43;;;1.00;;
15104;SDS011;7653;48.994;9.212;2023-04-28T12:47:05;1.20;;;1.03;;
15104;SDS011;7653;48.994;9.212;2023-04-28T12:49:32;1.30;;;0.90;;
15104;SDS011;7653;48.994;9.212;2023-04-28T12:51:59;2.40;;;1.00;;
15104;SDS011;7653;48.994;9.212;2023-04-28T12:54:25;1.90;;;0.97;;
15104;SDS011;7653;48.994;9.212;2023-04-28T12:56:51;6.43;;;0.80;;
15104;SDS011;7653;48.994;9.212;2023-04-28T12:59:18;1.13;;;0.70;;
15104;SDS011;7653;48.994;9.212;2023-04-28T13:01:45;1.07;;;0.70;;
15104;SDS011;7653;48.994;9.212;2023-04-28T13:04:11;0.73;;;0.50;;
15104;SDS011;7653;48.994;9.212;2023-04-28T13:06:37;0.70;;;0.67;;
15104;SDS011;7653;48.994;9.212;2023-04-28T13:09:08;3.33;;;0.80;;
15104;SDS011;7653;48.994;9.212;2023-04-28T13:11:37;0.70;;;0.70;;
15104;SDS011;7653;48.994;9.212;2023-04-28T13:14:03;2.53;;;1.30;;
15104;SDS011;7653;48.994;9.212;2023-04-28T13:16:29;1.33;;;0.80;;
15104;SDS011;7653;48.994;9.212;2023-04-28T13:18:55;1.10;;;0.90;;
15104;SDS011;7653;48.994;9.212;2023-04-28T13:21:24;1.37;;;0.77;;
15104;SDS011;7653;48.994;9.212;2023-04-28T13:23:50;2.47;;;1.20;;
15104;SDS011;7653;48.994;9.212;2023-04-28T13:26:21;0.90;;;0.80;;
15104;SDS011;7653;48.994;9.212;2023-04-28T13:28:50;1.60;;;1.00;;
15104;SDS011;7653;48.994;9.212;2023-04-28T13:31:16;2.17;;;1.00;;
15104;SDS011;7653;48.994;9.212;2023-04-28T13:33:42;1.30;;;1.10;;
15104;SDS011;7653;48.994;9.212;2023-04-28T13:36:07;1.33;;;1.20;;
15104;SDS011;7653;48.994;9.212;2023-04-28T13:38:34;1.90;;;1.30;;
15104;SDS011;7653;48.994;9.212;2023-04-28T13:41:00;3.07;;;1.90;;
15104;SDS011;7653;48.994;9.212;2023-04-28T13:43:26;0.90;;;0.90;;
15104;SDS011;7653;48.994;9.212;2023-04-28T13:45:52;1.73;;;1.30;;
15104;SDS011;7653;48.994;9.212;2023-04-28T13:48:18;1.80;;;1.07;;
15104;SDS011;7653;48.994;9.212;2023-04-28T13:50:46;2.27;;;1.20;;
15104;SDS011;7653;48.994;9.212;2023-04-28T13:53:12;3.07;;;0.90;;
15104;SDS011;7653;48.994;9.212;2023-04-28T13:55:38;1.00;;;0.90;;
15104;SDS011;7653;48.994;9.212;2023-04-28T13:58:03;3.60;;;0.93;;
15104;SDS011;7653;48.994;9.212;2023-04-28T14:00:30;1.17;;;0.90;;
15104;SDS011;7653;48.994;9.212;2023-04-28T14:02:57;1.63;;;1.13;;
15104;SDS011;7653;48.994;9.212;2023-04-28T14:05:24;1.27;;;0.90;;
15104;SDS011;7653;48.994;9.212;2023-04-28T14:07:52;1.97;;;1.00;;
15104;SDS011;7653;48.994;9.212;2023-04-28T14:10:18;1.77;;;1.20;;
15104;SDS011;7653;48.994;9.212;2023-04-28T14:12:45;4.67;;;3.63;;
15104;SDS011;7653;48.994;9.212;2023-04-28T14:15:10;1.63;;;1.53;;
15104;SDS011;7653;48.994;9.212;2023-04-28T14:17:36;5.67;;;4.63;;
15104;SDS011;7653;48.994;9.212;2023-04-28T14:20:02;4.60;;;1.70;;
15104;SDS011;7653;48.994;9.212;2023-04-28T14:22:28;2.60;;;1.27;;
15104;SDS011;7653;48.994;9.212;2023-04-28T14:24:54;1.30;;;1.20;;
15104;SDS011;7653;48.994;9.212;2023-04-28T14:27:20;1.10;;;1.07;;
15104;SDS011;7653;48.994;9.212;2023-04-28T14:29:46;2.07;;;1.10;;
15104;SDS011;7653;48.994;9.212;2023-04-28T14:32:13;1.60;;;1.13;;
15104;SDS011;7653;48.994;9.212;2023-04-28T14:34:40;1.20;;;1.10;;
15104;SDS011;7653;48.994;9.212;2023-04-28T14:37:06;2.40;;;1.07;;
15104;SDS011;7653;48.994;9.212;2023-04-28T14:39:33;1.33;;;1.10;;
15104;SDS011;7653;48.994;9.212;2023-04-28T14:41:58;1.93;;;1.33;;
15104;SDS011;7653;48.994;9.212;2023-04-28T14:44:24;1.43;;;1.27;;
15104;SDS011;7653;48.994;9.212;2023-04-28T14:46:50;1.73;;;1.10;;
15104;SDS011;7653;48.994;9.212;2023-04-28T14:49:15;0.70;;;0.70;;
15104;SDS011;7653;48.994;9.212;2023-04-28T14:51:41;1.20;;;1.10;;
15104;SDS011;7653;48.994;9.212;2023-04-28T14:54:07;0.93;;;0.70;;
15104;SDS011;7653;48.994;9.212;2023-04-28T14:56:33;0.67;;;0.67;;
15104;SDS011;7653;48.994;9.212;2023-04-28T14:58:59;1.60;;;1.17;;
15104;SDS011;7653;48.994;9.212;2023-04-28T15:01:24;2.53;;;0.60;;
15104;SDS011;7653;48.994;9.212;2023-04-28T15:03:50;0.40;;;0.40;;
15104;SDS011;7653;48.994;9.212;2023-04-28T15:06:16;0.40;;;0.40;;
15104;SDS011;7653;48.994;9.212;2023-04-28T15:08:42;0.50;;;0.43;;
15104;SDS011;7653;48.994;9.212;2023-04-28T15:11:07;2.93;;;0.63;;
15104;SDS011;7653;48.994;9.212;2023-04-28T15:13:33;0.63;;;0.50;;
15104;SDS011;7653;48.994;9.212;2023-04-28T15:15:59;0.80;;;0.57;;
15104;SDS011;7653;48.994;9.212;2023-04-28T15:18:26;1.03;;;0.50;;
15104;SDS011;7653;48.994;9.212;2023-04-28T15:20:53;0.70;;;0.60;;
15104;SDS011;7653;48.994;9.212;2023-04-28T15:23:18;1.27;;;0.80;;
15104;SDS011;7653;48.994;9.212;2023-04-28T15:25:44;1.30;;;1.20;;
15104;SDS011;7653;48.994;9.212;2023-04-28T15:28:11;3.33;;;1.40;;
15104;SDS011;7653;48.994;9.212;2023-04-28T15:30:37;2.70;;;1.20;;
15104;SDS011;7653;48.994;9.212;2023-04-28T15:33:02;3.33;;;1.47;;
15104;SDS011;7653;48.994;9.212;2023-04-28T15:35:28;1.83;;;1.30;;
15104;SDS011;7653;48.994;9.212;2023-04-28T15:37:53;2.60;;;1.20;;
15104;SDS011;7653;48.994;9.212;2023-04-28T15:40:19;1.63;;;1.50;;
15104;SDS011;7653;48.994;9.212;2023-04-28T15:42:46;1.50;;;1.30;;
15104;SDS011;7653;48.994;9.212;2023-04-28T15:45:17;2.60;;;1.60;;
15104;SDS011;7653;48.994;9.212;2023-04-28T15:47:47;1.50;;;1.30;;